Time;durP1;ratioP1;P1;durP2;ratioP2;P2;SDS_P1;SDS_P2;PMS_P1;PMS_P2;Temp;Humidity;BMP_temperature;BMP_pressure;BME280_temperature;BME280_humidity;BME280_pressure;Samples;Min_cycle;Max_cycle;Signal;HPM_P1;HPM_P2
2023/08/23 00:00:05;;;;;;;5.27;2.83;;;21.10;99.90;;;;;;4948033;28;20585;-76
2023/08/23 00:02:38;;;;;;;4.70;2.83;;;21.10;99.90;;;;;;4942933;28;20184;-76
2023/08/23 00:05:04;;;;;;;8.10;3.50;;;21.10;99.90;;;;;;4935328;29;20613;-76
2023/08/23 00:07:30;;;;;;;5.50;3.07;;;21.10;99.90;;;;;;4953361;28;20660;-76
2023/08/23 00:09:56;;;;;;;6.90;3.30;;;21.00;99.90;;;;;;4937390;28;20945;-75
2023/08/23 00:12:21;;;;;;;5.47;2.40;;;21.00;99.90;;;;;;4937191;28;20216;-75
2023/08/23 00:14:47;;;;;;;5.73;3.10;;;21.00;99.90;;;;;;4954129;28;20275;-75
2023/08/23 00:17:13;;;;;;;4.63;2.57;;;20.90;99.90;;;;;;4953981;28;20204;-75
2023/08/23 00:19:42;;;;;;;3.60;2.50;;;20.90;99.90;;;;;;4945651;28;20580;-76
2023/08/23 00:22:08;;;;;;;4.93;2.27;;;20.90;99.90;;;;;;4954092;28;20938;-75
2023/08/23 00:24:33;;;;;;;4.60;2.40;;;20.90;99.90;;;;;;4943318;28;20192;-77
2023/08/23 00:26:59;;;;;;;3.03;2.17;;;20.80;99.90;;;;;;4935980;29;20700;-76
2023/08/23 00:29:25;;;;;;;4.00;2.03;;;20.80;99.90;;;;;;4952593;28;20184;-76
2023/08/23 00:31:51;;;;;;;6.20;3.03;;;20.70;99.90;;;;;;4952456;28;20267;-76
2023/08/23 00:34:16;;;;;;;4.17;2.53;;;20.70;99.90;;;;;;4936324;29;20189;-75
2023/08/23 00:36:42;;;;;;;3.30;2.20;;;20.70;99.90;;;;;;4949475;28;20188;-75
2023/08/23 00:39:08;;;;;;;4.13;2.30;;;20.70;99.90;;;;;;4940869;28;20184;-76
2023/08/23 00:41:34;;;;;;;3.70;2.33;;;20.70;99.90;;;;;;4943463;28;20701;-77
2023/08/23 00:44:03;;;;;;;5.80;2.33;;;20.70;99.90;;;;;;4954276;29;20244;-76
2023/08/23 00:46:31;;;;;;;3.87;2.40;;;20.60;99.90;;;;;;4936983;29;20635;-76
2023/08/23 00:48:57;;;;;;;3.83;1.93;;;20.60;99.90;;;;;;4952484;28;21058;-76
2023/08/23 00:51:23;;;;;;;2.60;1.90;;;20.60;99.90;;;;;;4952357;28;20180;-76
2023/08/23 00:53:50;;;;;;;6.73;2.70;;;20.60;99.90;;;;;;4952410;28;20584;-76
2023/08/23 00:56:18;;;;;;;4.80;2.60;;;20.60;99.90;;;;;;4951861;28;20608;-77
2023/08/23 00:58:44;;;;;;;5.63;2.50;;;20.50;99.90;;;;;;4917446;29;20620;-76
2023/08/23 01:01:10;;;;;;;5.83;2.67;;;20.50;99.90;;;;;;4947818;28;20599;-76
2023/08/23 01:03:36;;;;;;;4.57;2.10;;;20.40;99.90;;;;;;4951112;28;20211;-76
2023/08/23 01:06:34;;;;;;;5.10;2.40;;;20.40;99.90;;;;;;4943932;28;20231;-76
2023/08/23 01:09:56;;;;;;;3.30;1.83;;;20.40;99.90;;;;;;4963479;28;20534;-76
2023/08/23 01:12:57;;;;;;;4.03;2.13;;;20.30;99.90;;;;;;4952168;28;20576;-76
2023/08/23 01:15:25;;;;;;;2.87;1.70;;;20.30;99.90;;;;;;4951014;28;20610;-76
2023/08/23 01:17:53;;;;;;;4.43;2.40;;;20.30;99.90;;;;;;4910206;29;20635;-76
2023/08/23 01:20:20;;;;;;;5.70;2.40;;;20.20;99.90;;;;;;4917225;29;20617;-76
2023/08/23 01:22:53;;;;;;;2.63;1.70;;;20.20;99.90;;;;;;4938030;28;20615;-76
2023/08/23 01:25:19;;;;;;;3.73;2.20;;;20.20;99.90;;;;;;4936115;28;20639;-76
2023/08/23 01:27:46;;;;;;;5.90;2.27;;;20.20;99.90;;;;;;4951875;28;20651;-76
2023/08/23 01:30:16;;;;;;;4.03;2.80;;;20.20;99.90;;;;;;4945266;28;20588;-76
2023/08/23 01:33:10;;;;;;;2.73;2.03;;;20.10;99.90;;;;;;4951831;28;20180;-75
2023/08/23 01:36:05;;;;;;;3.57;1.80;;;20.10;99.90;;;;;;4952389;28;20584;-75
2023/08/23 01:38:32;;;;;;;6.80;1.97;;;20.10;99.90;;;;;;4935128;28;20656;-75
2023/08/23 01:40:59;;;;;;;5.53;2.23;;;20.10;99.90;;;;;;4951702;28;20654;-76
2023/08/23 01:43:24;;;;;;;4.57;2.43;;;20.10;99.90;;;;;;4972838;23;20702;-79
2023/08/23 01:45:50;;;;;;;3.50;2.43;;;20.00;99.90;;;;;;4967522;28;20592;-79
2023/08/23 01:48:16;;;;;;;3.43;2.23;;;20.00;99.90;;;;;;4935229;28;20180;-78
2023/08/23 01:50:41;;;;;;;6.93;2.13;;;20.00;99.90;;;;;;4951140;28;20180;-79
2023/08/23 01:53:07;;;;;;;5.23;2.27;;;19.90;99.90;;;;;;4950480;28;20226;-78
2023/08/23 01:55:33;;;;;;;3.07;2.20;;;19.90;99.90;;;;;;4950867;28;20181;-78
2023/08/23 01:57:58;;;;;;;8.20;2.30;;;20.00;99.90;;;;;;4951802;28;20251;-79
2023/08/23 02:00:24;;;;;;;3.80;2.43;;;19.90;99.90;;;;;;4951390;28;20259;-79
2023/08/23 02:02:52;;;;;;;3.10;1.90;;;19.90;99.90;;;;;;4951490;28;20188;-78
2023/08/23 02:05:17;;;;;;;3.73;1.90;;;19.90;99.90;;;;;;4952088;28;21024;-79
2023/08/23 02:07:45;;;;;;;8.97;2.30;;;19.90;99.90;;;;;;4959862;28;20211;-78
2023/08/23 02:10:10;;;;;;;3.57;1.70;;;19.90;99.90;;;;;;4951398;28;20596;-78
2023/08/23 02:12:36;;;;;;;4.67;2.20;;;19.90;99.90;;;;;;4958976;28;20598;-78
2023/08/23 02:15:02;;;;;;;4.07;1.90;;;19.90;99.90;;;;;;4954600;28;20673;-78
2023/08/23 02:17:27;;;;;;;3.93;1.73;;;19.90;99.90;;;;;;4956365;28;20255;-78
2023/08/23 02:19:53;;;;;;;2.53;1.83;;;19.90;99.90;;;;;;4954940;28;20662;-78
2023/08/23 02:22:19;;;;;;;3.80;2.27;;;19.80;99.90;;;;;;4964263;28;20203;-79
2023/08/23 02:24:44;;;;;;;3.67;2.03;;;19.80;99.90;;;;;;4947185;29;20635;-79
2023/08/23 02:27:10;;;;;;;3.83;2.10;;;19.80;99.90;;;;;;4954499;28;20211;-79
2023/08/23 02:29:36;;;;;;;4.27;2.20;;;19.80;99.90;;;;;;4954774;28;20244;-78
2023/08/23 02:32:02;;;;;;;2.60;1.60;;;19.80;99.90;;;;;;4955102;28;20631;-79
2023/08/23 02:34:27;;;;;;;3.27;1.80;;;19.70;99.90;;;;;;4962506;28;20190;-79
2023/08/23 02:36:53;;;;;;;3.80;1.80;;;19.70;99.90;;;;;;4964174;28;20580;-78
2023/08/23 02:39:19;;;;;;;2.73;2.13;;;19.70;99.90;;;;;;4954928;28;20185;-78
2023/08/23 02:41:45;;;;;;;3.27;1.50;;;19.70;99.90;;;;;;4954732;28;20283;-78
2023/08/23 02:44:10;;;;;;;4.30;1.80;;;19.60;99.90;;;;;;4955078;28;20243;-79
2023/08/23 02:46:36;;;;;;;3.07;2.20;;;19.70;99.90;;;;;;4962511;28;20811;-78
2023/08/23 02:49:01;;;;;;;7.63;1.77;;;19.60;99.90;;;;;;4954702;28;20204;-78
2023/08/23 02:51:27;;;;;;;3.70;1.93;;;19.60;99.90;;;;;;4954179;29;20283;-78
2023/08/23 02:53:53;;;;;;;4.83;1.60;;;19.60;99.90;;;;;;4954354;28;20179;-80
2023/08/23 02:56:18;;;;;;;4.30;1.57;;;19.50;99.90;;;;;;4954816;29;20223;-78
2023/08/23 02:58:44;;;;;;;2.83;2.00;;;19.50;99.90;;;;;;4925082;28;20651;-78
2023/08/23 03:01:11;;;;;;;4.23;1.80;;;19.50;99.90;;;;;;4954572;28;20639;-78
2023/08/23 03:03:36;;;;;;;4.50;2.00;;;19.50;99.90;;;;;;4956723;28;20710;-78
2023/08/23 03:06:02;;;;;;;4.00;1.90;;;19.50;99.90;;;;;;4954357;28;20687;-79
2023/08/23 03:08:28;;;;;;;1.80;1.30;;;19.50;99.90;;;;;;4962185;28;20186;-78
2023/08/23 03:11:04;;;;;;;3.67;2.13;;;19.50;99.90;;;;;;4954186;28;20228;-78
2023/08/23 03:13:30;;;;;;;5.70;1.90;;;19.40;99.90;;;;;;4953784;28;20208;-78
2023/08/23 03:15:58;;;;;;;3.73;1.70;;;19.40;99.90;;;;;;4954308;28;20691;-78
2023/08/23 03:18:23;;;;;;;4.33;1.90;;;19.40;99.90;;;;;;4935141;29;20576;-78
2023/08/23 03:20:50;;;;;;;4.93;2.30;;;19.40;99.90;;;;;;4954120;29;20594;-78
2023/08/23 03:23:18;;;;;;;2.87;1.80;;;19.30;99.90;;;;;;4953661;28;20204;-78
2023/08/23 03:25:45;;;;;;;3.17;1.93;;;19.30;99.90;;;;;;4953008;28;20579;-79
2023/08/23 03:28:12;;;;;;;4.73;2.93;;;19.30;99.90;;;;;;4953712;28;20735;-78
2023/08/23 03:30:38;;;;;;;5.47;2.37;;;19.30;99.90;;;;;;4956489;28;20635;-78
2023/08/23 03:33:05;;;;;;;3.50;2.30;;;19.20;99.90;;;;;;4959915;28;21094;-78
2023/08/23 03:35:32;;;;;;;3.43;1.80;;;19.20;99.90;;;;;;4953811;28;20642;-77
2023/08/23 03:37:58;;;;;;;5.20;2.80;;;19.20;99.90;;;;;;4953836;28;20679;-77
2023/08/23 03:40:23;;;;;;;3.30;2.27;;;19.20;99.90;;;;;;4953926;28;20683;-77
2023/08/23 03:42:49;;;;;;;5.93;1.87;;;19.20;99.90;;;;;;4956739;28;20250;-77
2023/08/23 03:45:16;;;;;;;4.40;2.90;;;19.20;99.90;;;;;;4958072;28;20180;-76
2023/08/23 03:47:42;;;;;;;7.20;2.57;;;19.20;99.90;;;;;;4953724;28;20200;-76
2023/08/23 03:50:08;;;;;;;5.83;2.37;;;19.20;99.90;;;;;;4953776;28;20938;-77
2023/08/23 03:52:34;;;;;;;3.20;2.27;;;19.10;99.90;;;;;;4953517;28;20201;-77
2023/08/23 03:55:00;;;;;;;5.47;2.40;;;19.10;99.90;;;;;;4954016;28;20596;-76
2023/08/23 03:57:26;;;;;;;4.80;2.10;;;19.10;99.90;;;;;;4953681;28;20603;-77
2023/08/23 03:59:53;;;;;;;3.80;2.33;;;19.10;99.90;;;;;;4953777;28;20676;-76
2023/08/23 04:02:19;;;;;;;4.80;2.93;;;19.10;99.90;;;;;;4953435;28;20639;-77
2023/08/23 04:04:45;;;;;;;3.97;2.70;;;19.10;99.90;;;;;;4953279;28;20189;-77
2023/08/23 04:07:15;;;;;;;4.07;3.43;;;19.20;99.90;;;;;;4953948;28;20643;-77
2023/08/23 04:09:41;;;;;;;4.57;3.50;;;19.20;99.90;;;;;;4962589;28;20199;-77
2023/08/23 04:12:08;;;;;;;10.67;4.63;;;19.10;99.90;;;;;;4955378;28;20608;-78
2023/08/23 04:14:35;;;;;;;5.43;4.20;;;19.10;99.90;;;;;;4952032;28;20586;-77
2023/08/23 04:17:02;;;;;;;6.13;4.77;;;19.20;99.90;;;;;;4941753;28;20645;-77
2023/08/23 04:19:28;;;;;;;5.03;4.37;;;19.20;99.90;;;;;;4951301;28;20609;-78
2023/08/23 04:21:54;;;;;;;7.27;4.87;;;19.20;99.90;;;;;;4952877;28;20619;-77
2023/08/23 04:24:20;;;;;;;5.87;4.13;;;19.20;99.90;;;;;;4953039;28;20731;-77
2023/08/23 04:26:46;;;;;;;5.00;4.50;;;19.30;99.90;;;;;;4960641;28;20640;-77
2023/08/23 04:29:12;;;;;;;4.87;4.33;;;19.20;99.90;;;;;;4957962;28;20594;-77
2023/08/23 04:31:38;;;;;;;5.33;4.77;;;19.30;99.90;;;;;;4956327;28;20180;-78
2023/08/23 04:34:11;;;;;;;5.63;4.90;;;19.30;99.90;;;;;;4954271;28;20599;-79
2023/08/23 04:36:38;;;;;;;6.13;4.40;;;19.30;99.90;;;;;;4952829;28;20995;-78
2023/08/23 04:39:04;;;;;;;5.33;4.83;;;19.30;99.90;;;;;;4954185;28;20695;-78
2023/08/23 04:41:30;;;;;;;5.67;3.80;;;19.30;99.90;;;;;;4960221;28;21157;-78
2023/08/23 04:43:56;;;;;;;4.77;4.33;;;19.30;99.90;;;;;;4953618;28;20176;-79
2023/08/23 04:46:22;;;;;;;4.97;3.53;;;19.30;99.90;;;;;;4952533;28;20295;-78
2023/08/23 04:48:47;;;;;;;7.83;3.83;;;19.30;99.90;;;;;;4952235;28;20192;-79
2023/08/23 04:51:15;;;;;;;4.43;4.00;;;19.30;99.90;;;;;;4952227;28;20180;-78
2023/08/23 04:53:41;;;;;;;5.23;3.43;;;19.30;99.90;;;;;;4959836;28;20628;-78
2023/08/23 04:56:07;;;;;;;4.80;4.40;;;19.30;99.90;;;;;;4920674;29;20663;-79
2023/08/23 04:58:32;;;;;;;5.80;3.73;;;19.30;99.90;;;;;;4952412;29;20184;-79
2023/08/23 05:01:04;;;;;;;4.57;3.90;;;19.40;99.90;;;;;;4952106;28;20172;-78
2023/08/23 05:03:34;;;;;;;6.07;3.77;;;19.40;99.90;;;;;;4953513;28;20655;-78
2023/08/23 05:06:00;;;;;;;5.53;3.77;;;19.40;99.90;;;;;;4959137;28;20631;-78
2023/08/23 05:08:28;;;;;;;4.90;3.50;;;19.50;99.90;;;;;;4952742;29;20595;-77
2023/08/23 05:10:58;;;;;;;4.50;3.70;;;19.50;99.90;;;;;;4951791;28;20604;-78
2023/08/23 05:13:23;;;;;;;5.20;3.93;;;19.60;99.90;;;;;;4951653;28;20638;-77
2023/08/23 05:15:53;;;;;;;3.60;3.30;;;19.60;99.90;;;;;;4958908;28;20192;-78
2023/08/23 05:18:19;;;;;;;5.17;4.00;;;19.60;99.90;;;;;;4963182;28;20549;-78
2023/08/23 05:20:46;;;;;;;6.77;3.80;;;19.60;99.90;;;;;;4970979;28;20595;-78
2023/08/23 05:23:12;;;;;;;5.53;4.07;;;19.60;99.90;;;;;;4971130;28;20649;-78
2023/08/23 05:25:37;;;;;;;4.97;3.60;;;19.70;99.90;;;;;;4954996;28;21147;-78
2023/08/23 05:28:03;;;;;;;4.53;4.10;;;19.70;99.90;;;;;;4962505;28;20761;-78
2023/08/23 05:30:31;;;;;;;8.83;6.00;;;19.70;99.90;;;;;;4923772;29;20187;-78
2023/08/23 05:32:56;;;;;;;5.90;4.20;;;19.70;99.90;;;;;;4923723;28;20698;-78
2023/08/23 05:35:22;;;;;;;6.97;4.83;;;19.70;99.90;;;;;;4971036;28;20666;-77
2023/08/23 05:37:48;;;;;;;4.50;3.80;;;19.70;99.90;;;;;;4971262;28;20331;-77
2023/08/23 05:40:14;;;;;;;6.37;4.23;;;19.70;99.90;;;;;;4966196;28;20190;-78
2023/08/23 05:42:39;;;;;;;5.43;4.80;;;19.80;99.90;;;;;;4960732;28;20226;-78
2023/08/23 05:45:06;;;;;;;5.00;3.80;;;19.90;99.90;;;;;;4972570;28;20258;-78
2023/08/23 05:47:33;;;;;;;5.30;4.20;;;19.90;99.90;;;;;;4970906;28;20711;-79
2023/08/23 05:49:58;;;;;;;5.53;3.93;;;20.00;99.90;;;;;;4970647;28;20587;-78
2023/08/23 05:52:24;;;;;;;6.33;4.27;;;20.10;99.90;;;;;;4970960;28;20629;-78
2023/08/23 05:54:50;;;;;;;6.50;4.67;;;20.20;99.90;;;;;;4972098;28;20662;-78
2023/08/23 05:57:15;;;;;;;6.47;4.20;;;20.20;99.90;;;;;;4972285;28;20196;-78
2023/08/23 05:59:41;;;;;;;8.10;4.50;;;20.30;99.90;;;;;;4970597;28;20234;-77
2023/08/23 06:02:07;;;;;;;7.10;4.10;;;20.40;99.90;;;;;;4970822;28;20247;-78
2023/08/23 06:04:33;;;;;;;8.37;4.47;;;20.40;99.90;;;;;;4970474;28;20267;-79
2023/08/23 06:06:59;;;;;;;8.27;4.37;;;20.50;99.90;;;;;;4959092;28;20639;-78
2023/08/23 06:09:25;;;;;;;4.77;4.07;;;20.60;99.90;;;;;;4951565;28;20619;-78
2023/08/23 06:11:50;;;;;;;4.30;3.63;;;20.70;99.90;;;;;;4967502;28;20632;-78
2023/08/23 06:14:19;;;;;;;6.40;4.93;;;20.70;99.90;;;;;;4962135;28;20180;-77
2023/08/23 06:16:45;;;;;;;7.53;5.00;;;20.80;99.90;;;;;;4971890;28;20186;-77
2023/08/23 06:19:11;;;;;;;6.40;4.50;;;20.90;99.90;;;;;;4971758;28;20595;-78
2023/08/23 06:21:38;;;;;;;6.13;4.47;;;21.00;99.90;;;;;;4956014;28;21114;-77
2023/08/23 06:24:04;;;;;;;5.60;5.00;;;21.10;99.90;;;;;;4956276;28;20587;-78
2023/08/23 06:26:29;;;;;;;10.80;4.77;;;21.20;99.90;;;;;;4956049;28;20635;-78
2023/08/23 06:28:55;;;;;;;5.50;4.27;;;21.30;99.90;;;;;;4963204;28;21346;-77
2023/08/23 06:31:21;;;;;;;5.93;4.97;;;21.50;99.90;;;;;;4970342;28;20227;-78
2023/08/23 06:33:47;;;;;;;8.63;5.30;;;21.80;99.90;;;;;;4970325;28;20186;-78
2023/08/23 06:36:12;;;;;;;3.63;3.30;;;22.60;99.90;;;;;;4970485;28;20192;-77
2023/08/23 06:38:40;;;;;;;4.50;3.50;;;23.40;99.90;;;;;;4970418;28;20590;-78
2023/08/23 06:41:06;;;;;;;9.20;3.60;;;24.20;99.90;;;;;;4970231;28;20516;-78
2023/08/23 06:43:31;;;;;;;4.17;3.40;;;25.10;99.90;;;;;;4969839;28;20629;-78
2023/08/23 06:45:57;;;;;;;4.70;3.40;;;26.00;99.90;;;;;;4970217;28;20264;-78
2023/08/23 06:48:23;;;;;;;3.47;2.57;;;26.80;99.90;;;;;;4953602;28;20236;-78
2023/08/23 06:50:48;;;;;;;3.57;2.30;;;27.60;99.90;;;;;;4960949;28;20270;-78
2023/08/23 06:53:14;;;;;;;4.13;2.07;;;28.60;99.90;;;;;;4958000;28;20291;-78
2023/08/23 06:55:41;;;;;;;5.37;3.47;;;29.50;99.90;;;;;;4951258;29;20192;-79
2023/08/23 06:58:07;;;;;;;4.10;2.27;;;30.40;99.90;;;;;;4952564;28;20666;-79
2023/08/23 07:00:34;;;;;;;5.20;2.77;;;31.00;99.90;;;;;;4953369;28;21097;-79
2023/08/23 07:03:01;;;;;;;5.57;3.10;;;31.50;99.90;;;;;;4957307;28;20948;-79
2023/08/23 07:05:27;;;;;;;6.33;2.90;;;32.20;99.90;;;;;;4955106;28;20664;-79
2023/08/23 07:07:53;;;;;;;4.07;2.60;;;32.60;99.90;;;;;;4954292;28;20658;-79
2023/08/23 07:10:19;;;;;;;8.67;3.20;;;32.90;99.90;;;;;;4957174;28;20582;-79
2023/08/23 07:12:45;;;;;;;2.93;2.20;;;33.00;99.90;;;;;;4955866;28;20617;-79
2023/08/23 07:15:11;;;;;;;6.60;2.50;;;33.20;99.90;;;;;;4956078;28;20572;-79
2023/08/23 07:17:37;;;;;;;5.37;3.13;;;33.60;99.90;;;;;;4961305;28;20582;-77
2023/08/23 07:20:06;;;;;;;5.10;3.03;;;34.00;99.90;;;;;;4954710;28;20603;-77
2023/08/23 07:22:32;;;;;;;2.97;2.13;;;34.20;99.90;;;;;;4955643;28;20200;-77
2023/08/23 07:24:58;;;;;;;3.67;2.43;;;34.40;99.90;;;;;;4954955;28;20719;-77
2023/08/23 07:27:23;;;;;;;6.80;2.00;;;34.80;99.90;;;;;;4955079;28;20239;-77
2023/08/23 07:29:49;;;;;;;4.53;2.33;;;35.30;99.90;;;;;;4971844;28;20626;-77
2023/08/23 07:32:15;;;;;;;2.60;2.07;;;35.80;99.60;;;;;;4974513;28;20226;-77
2023/08/23 07:34:40;;;;;;;5.40;2.30;;;36.30;98.70;;;;;;4974578;28;20272;-77
2023/08/23 07:37:06;;;;;;;3.30;2.13;;;36.90;97.60;;;;;;4973369;28;20238;-77
2023/08/23 07:39:34;;;;;;;4.93;2.10;;;37.50;96.10;;;;;;4958404;28;20181;-77
2023/08/23 07:42:00;;;;;;;4.00;2.00;;;38.00;94.70;;;;;;4938647;28;20628;-78
2023/08/23 07:44:26;;;;;;;2.80;2.00;;;38.50;93.80;;;;;;4955073;28;20579;-77
2023/08/23 07:46:51;;;;;;;3.23;2.47;;;39.00;91.90;;;;;;4957011;28;20236;-78
2023/08/23 07:49:17;;;;;;;11.23;3.17;;;39.10;86.00;;;;;;4962660;28;20208;-78
2023/08/23 07:51:43;;;;;;;3.73;2.60;;;39.00;83.60;;;;;;4951361;28;20204;-78
2023/08/23 07:54:09;;;;;;;5.10;3.30;;;39.20;81.90;;;;;;4962555;28;20924;-73
2023/08/23 07:56:35;;;;;;;3.63;2.90;;;39.30;77.10;;;;;;4962671;28;20274;-75
2023/08/23 07:59:01;;;;;;;4.50;2.57;;;39.10;75.40;;;;;;4974328;28;21005;-73
2023/08/23 08:01:26;;;;;;;3.13;2.40;;;39.20;75.20;;;;;;4958042;28;20188;-73
2023/08/23 08:03:52;;;;;;;5.23;3.03;;;39.50;74.90;;;;;;4963759;28;20602;-73
2023/08/23 08:06:18;;;;;;;5.37;3.20;;;39.70;73.20;;;;;;4945363;29;20184;-73
2023/08/23 08:08:45;;;;;;;5.00;3.37;;;39.80;71.00;;;;;;4971639;28;20583;-74
2023/08/23 08:11:12;;;;;;;3.40;2.87;;;40.00;69.90;;;;;;4973517;28;20584;-73
2023/08/23 08:13:38;;;;;;;4.77;3.00;;;40.30;69.00;;;;;;4973879;28;20199;-73
2023/08/23 08:16:09;;;;;;;4.33;2.73;;;40.70;67.70;;;;;;4940684;28;21164;-74
2023/08/23 08:18:35;;;;;;;4.10;3.10;;;40.90;63.70;;;;;;4964624;28;20594;-74
2023/08/23 08:21:01;;;;;;;4.10;3.40;;;41.00;64.10;;;;;;4954541;28;20584;-74
2023/08/23 08:23:29;;;;;;;4.43;3.70;;;41.00;61.10;;;;;;4968816;28;20212;-74
2023/08/23 08:25:55;;;;;;;4.30;3.23;;;41.10;60.30;;;;;;4954443;28;20188;-74
2023/08/23 08:28:20;;;;;;;4.20;3.50;;;41.10;59.30;;;;;;4952656;28;21220;-73
2023/08/23 08:30:47;;;;;;;3.73;3.00;;;41.20;58.40;;;;;;4955081;28;20948;-73
2023/08/23 08:33:12;;;;;;;4.20;3.00;;;41.30;58.40;;;;;;4968903;28;20249;-74
2023/08/23 08:35:38;;;;;;;3.60;2.40;;;41.50;58.10;;;;;;4968526;28;20625;-73
2023/08/23 08:38:04;;;;;;;3.90;2.67;;;41.80;57.70;;;;;;4972020;28;20184;-73
2023/08/23 08:40:30;;;;;;;7.40;3.17;;;42.00;56.30;;;;;;4973292;28;20187;-73
2023/08/23 08:42:56;;;;;;;3.43;2.47;;;42.00;56.10;;;;;;4973012;28;21176;-74
2023/08/23 08:45:22;;;;;;;2.50;1.93;;;42.20;55.30;;;;;;4973564;28;20211;-74
2023/08/23 08:47:48;;;;;;;3.87;2.30;;;42.50;54.50;;;;;;4964543;28;21297;-74
2023/08/23 08:50:14;;;;;;;2.60;2.13;;;42.30;52.30;;;;;;4953852;28;20303;-74
2023/08/23 08:52:42;;;;;;;3.80;2.30;;;42.10;51.00;;;;;;4957052;28;20714;-74
2023/08/23 08:55:10;;;;;;;5.83;1.87;;;41.90;51.40;;;;;;4941617;28;20771;-74
2023/08/23 08:57:36;;;;;;;3.70;1.57;;;42.00;51.20;;;;;;4952243;29;20588;-75
2023/08/23 09:00:04;;;;;;;8.57;3.07;;;41.90;50.70;;;;;;4956865;28;20585;-74
2023/08/23 09:02:32;;;;;;;4.63;2.70;;;41.70;49.60;;;;;;4951829;29;20726;-74
2023/08/23 09:04:59;;;;;;;4.27;2.50;;;41.40;49.50;;;;;;4961695;28;20679;-75
2023/08/23 09:07:25;;;;;;;3.80;2.10;;;41.40;49.50;;;;;;4952338;29;20651;-75
2023/08/23 09:09:51;;;;;;;3.63;2.27;;;41.60;50.00;;;;;;4955420;28;20592;-74
2023/08/23 09:12:17;;;;;;;4.57;2.30;;;41.90;49.90;;;;;;4972761;28;20203;-74
2023/08/23 09:14:48;;;;;;;3.23;2.63;;;42.10;49.30;;;;;;4964019;28;20222;-75
2023/08/23 09:17:13;;;;;;;4.90;2.27;;;42.40;48.80;;;;;;4964777;28;20183;-75
2023/08/23 09:19:42;;;;;;;4.37;3.00;;;42.70;49.30;;;;;;4971769;28;20595;-75
2023/08/23 09:22:08;;;;;;;3.10;2.33;;;43.00;48.70;;;;;;4972556;28;20278;-74
2023/08/23 09:24:34;;;;;;;7.60;2.30;;;43.30;48.60;;;;;;4962475;28;20694;-75
2023/08/23 09:27:00;;;;;;;3.43;2.40;;;43.60;48.20;;;;;;4954927;28;20741;-76
2023/08/23 09:29:27;;;;;;;3.90;2.57;;;43.90;47.70;;;;;;4961698;28;20247;-76
2023/08/23 09:31:52;;;;;;;3.73;2.27;;;44.10;47.30;;;;;;4964224;28;20711;-75
2023/08/23 09:34:19;;;;;;;3.27;2.30;;;44.30;47.00;;;;;;4967586;28;20179;-76
2023/08/23 09:36:46;;;;;;;2.60;2.10;;;44.40;45.90;;;;;;4972516;28;20188;-75
2023/08/23 09:39:12;;;;;;;2.97;2.07;;;44.30;45.50;;;;;;4972276;28;20609;-76
2023/08/23 09:41:40;;;;;;;4.37;2.47;;;44.40;45.20;;;;;;4991124;28;20686;-76
2023/08/23 09:44:06;;;;;;;3.47;2.23;;;44.60;45.00;;;;;;4954063;28;20234;-76
2023/08/23 09:46:35;;;;;;;5.00;2.50;;;44.60;44.30;;;;;;4953629;28;20595;-75
2023/08/23 09:49:04;;;;;;;5.43;1.97;;;44.60;43.70;;;;;;4953929;28;20592;-75
2023/08/23 09:51:33;;;;;;;5.60;2.97;;;44.60;43.40;;;;;;4952855;28;20602;-75
2023/08/23 09:54:22;;;;;;;3.33;2.30;;;44.60;43.50;;;;;;4953807;28;20615;-75
2023/08/23 09:56:49;;;;;;;4.03;1.93;;;44.60;43.30;;;;;;4961014;28;20656;-76
2023/08/23 09:59:16;;;;;;;3.00;1.90;;;44.70;43.80;;;;;;4981596;28;20599;-76
2023/08/23 10:01:42;;;;;;;4.60;2.90;;;44.70;43.50;;;;;;4959518;28;20595;-75
2023/08/23 10:04:08;;;;;;;2.60;1.87;;;44.80;43.50;;;;;;4955810;28;20722;-76
2023/08/23 10:06:35;;;;;;;6.00;2.00;;;45.00;43.40;;;;;;4971514;28;20694;-76
2023/08/23 10:09:03;;;;;;;3.80;1.97;;;45.00;42.80;;;;;;4953303;28;20192;-75
2023/08/23 10:11:30;;;;;;;3.50;2.07;;;45.10;42.10;;;;;;4955350;28;20600;-74
2023/08/23 10:13:58;;;;;;;3.00;1.90;;;45.10;41.90;;;;;;4961472;28;20594;-76
2023/08/23 10:16:25;;;;;;;6.67;2.90;;;45.30;41.80;;;;;;4954586;28;20584;-75
2023/08/23 10:18:51;;;;;;;3.33;1.60;;;45.50;41.30;;;;;;4955016;28;20620;-75
2023/08/23 10:21:17;;;;;;;5.63;2.03;;;45.70;41.10;;;;;;4972573;28;20585;-74
2023/08/23 10:23:43;;;;;;;6.47;2.10;;;45.80;40.50;;;;;;4971509;28;21043;-75
2023/08/23 10:26:22;;;;;;;3.40;2.00;;;45.80;39.80;;;;;;4971701;28;20234;-74
2023/08/23 10:28:49;;;;;;;3.53;1.97;;;45.70;40.00;;;;;;4963006;28;20192;-74
2023/08/23 10:31:25;;;;;;;4.30;2.47;;;45.80;40.30;;;;;;4951293;29;20643;-74
2023/08/23 10:33:58;;;;;;;3.27;1.70;;;45.90;40.10;;;;;;4960827;28;20590;-75
2023/08/23 10:36:27;;;;;;;4.93;1.80;;;45.90;39.60;;;;;;4967927;28;20583;-74
2023/08/23 10:38:55;;;;;;;4.63;3.07;;;45.90;39.20;;;;;;4975510;28;20586;-74
2023/08/23 10:41:21;;;;;;;4.20;2.43;;;45.70;38.70;;;;;;4963021;28;21206;-75
2023/08/23 10:43:47;;;;;;;3.70;1.80;;;45.40;39.30;;;;;;4955671;28;20627;-75
2023/08/23 10:46:18;;;;;;;3.93;1.70;;;45.20;38.80;;;;;;4963074;28;20587;-74
2023/08/23 10:48:45;;;;;;;5.30;1.60;;;44.90;38.80;;;;;;4963786;28;20665;-76
2023/08/23 10:51:12;;;;;;;4.50;1.83;;;44.50;38.60;;;;;;4975150;28;20629;-77
2023/08/23 10:53:40;;;;;;;4.50;1.40;;;44.10;38.70;;;;;;4960184;28;20727;-76
2023/08/23 10:56:07;;;;;;;2.80;1.47;;;43.80;38.80;;;;;;4962201;28;20604;-76
2023/08/23 10:58:33;;;;;;;2.90;1.53;;;43.60;39.10;;;;;;4969739;28;20751;-75
2023/08/23 11:00:59;;;;;;;3.77;1.30;;;43.30;38.60;;;;;;4964708;28;20610;-76
2023/08/23 11:03:33;;;;;;;2.43;1.20;;;42.90;38.30;;;;;;4956144;28;20638;-76
2023/08/23 11:05:59;;;;;;;4.07;0.80;;;42.70;38.40;;;;;;4956192;28;21160;-75
2023/08/23 11:08:25;;;;;;;2.20;0.90;;;42.50;38.70;;;;;;4956603;28;20600;-75
2023/08/23 11:10:50;;;;;;;2.90;0.97;;;42.40;38.90;;;;;;4963953;28;20594;-74
2023/08/23 11:13:16;;;;;;;2.13;0.70;;;42.30;39.60;;;;;;4974849;28;20231;-74
2023/08/23 11:15:45;;;;;;;4.37;1.40;;;42.10;39.10;;;;;;4960383;28;20267;-74
2023/08/23 11:18:12;;;;;;;4.90;0.90;;;42.00;38.90;;;;;;4956589;28;20283;-76
2023/08/23 11:20:38;;;;;;;2.20;0.80;;;41.70;38.40;;;;;;4955314;28;20591;-76
2023/08/23 11:23:04;;;;;;;2.80;1.00;;;41.20;37.80;;;;;;4955284;29;20623;-75
2023/08/23 11:25:30;;;;;;;3.20;0.87;;;40.60;37.50;;;;;;4956550;28;20184;-74
2023/08/23 11:27:57;;;;;;;2.40;0.87;;;39.90;37.50;;;;;;4955902;28;20184;-75
2023/08/23 11:30:23;;;;;;;1.80;0.83;;;39.30;37.90;;;;;;4963563;28;20187;-74
2023/08/23 11:32:48;;;;;;;2.00;0.80;;;38.70;38.30;;;;;;4955204;29;20632;-74
2023/08/23 11:35:17;;;;;;;2.80;0.80;;;38.30;39.10;;;;;;4954790;28;20224;-74
2023/08/23 11:37:42;;;;;;;1.70;0.70;;;38.10;40.00;;;;;;4961936;28;20207;-74
2023/08/23 11:40:10;;;;;;;2.60;0.73;;;38.00;40.80;;;;;;4962762;28;20961;-74
2023/08/23 11:42:37;;;;;;;3.27;1.30;;;37.90;40.80;;;;;;4954863;28;20699;-75
2023/08/23 11:45:04;;;;;;;1.90;0.77;;;37.90;40.80;;;;;;4956568;28;20930;-74
2023/08/23 11:47:30;;;;;;;1.50;0.60;;;37.90;40.80;;;;;;4959041;28;20587;-74
2023/08/23 11:49:56;;;;;;;2.30;0.73;;;38.00;41.10;;;;;;4954719;28;20623;-74
2023/08/23 11:52:22;;;;;;;5.93;0.80;;;38.00;41.00;;;;;;4962390;28;20619;-74
2023/08/23 11:54:52;;;;;;;1.90;0.60;;;38.00;41.00;;;;;;4962707;28;21019;-74
2023/08/23 11:57:18;;;;;;;2.13;0.80;;;38.00;41.20;;;;;;4956750;28;20226;-74
2023/08/23 11:59:44;;;;;;;2.37;0.90;;;38.00;42.00;;;;;;4959466;28;20576;-75
2023/08/23 12:02:10;;;;;;;3.73;0.70;;;38.10;41.70;;;;;;4953206;28;20697;-75
2023/08/23 12:04:40;;;;;;;6.67;1.57;;;38.20;41.60;;;;;;4954561;28;20595;-73
2023/08/23 12:07:06;;;;;;;2.30;0.80;;;38.30;41.60;;;;;;4961889;28;20611;-74
2023/08/23 12:09:32;;;;;;;4.97;0.90;;;38.40;41.60;;;;;;4956802;28;20661;-74
2023/08/23 12:11:59;;;;;;;1.90;0.77;;;38.50;41.00;;;;;;4954327;28;21037;-74
2023/08/23 12:14:28;;;;;;;3.07;0.90;;;38.50;40.80;;;;;;4953386;28;20176;-74
2023/08/23 12:16:54;;;;;;;2.43;0.90;;;38.40;40.90;;;;;;4951860;29;20756;-73
2023/08/23 12:19:21;;;;;;;3.43;0.90;;;38.30;40.80;;;;;;4951901;28;20599;-74
2023/08/23 12:21:46;;;;;;;4.27;0.90;;;38.20;40.50;;;;;;4951864;28;20639;-74
2023/08/23 12:24:12;;;;;;;3.00;0.90;;;38.10;40.50;;;;;;4963303;28;20587;-74
2023/08/23 12:26:38;;;;;;;3.47;1.00;;;37.90;40.40;;;;;;4964666;28;20195;-73
2023/08/23 12:29:04;;;;;;;8.43;1.13;;;37.90;40.90;;;;;;4971068;28;20664;-74
2023/08/23 12:31:30;;;;;;;2.50;1.07;;;37.80;41.10;;;;;;4953338;28;20219;-73
2023/08/23 12:33:55;;;;;;;3.63;0.90;;;37.70;41.30;;;;;;4954353;28;20603;-73
2023/08/23 12:36:21;;;;;;;3.70;1.40;;;37.60;41.50;;;;;;4952853;28;20558;-73
2023/08/23 12:38:47;;;;;;;2.53;1.17;;;37.60;41.40;;;;;;4952979;28;20269;-74
2023/08/23 12:41:13;;;;;;;3.57;1.07;;;37.50;41.50;;;;;;4956435;28;20605;-74
2023/08/23 12:43:40;;;;;;;3.20;0.80;;;37.40;41.30;;;;;;4959037;28;20691;-74